»·PEaware :: N660WC KSNA-KBUR

N660WC :: KSNA-KBUR

FLIGHT INFORMATION

Flight Status: Arrived
Operator: Privately registered:
United States
More flights under this callsign
Pilot: John H. (7647)
Aircraft: CESSNA T210 TURBO CENTURION
(T210)
More flights by this aircraft type
Origin: KSNA John Wayne-Orange Co
United States
Destination: KBUR Bob Hope-Burbank
United States
More flights between these airports :: More routes between these airports
Route: +SLI V23 POPPR SMO125R SMO SMO311R SILEX
File this flight plan on PilotEdge
Remarks: TEC route CSTP1 / I-3 Check Ride
Altitude:
(Current/Filed)
4,000ft
Speed:
(Current/Filed)
160kts
Departed: 01-Sep-18 04:15 PM
Arrived: 01-Sep-18 04:50 PM
Distance/Time
Traveled:
40nm/0:35
Distance/Time
To Go:
Arrived

Flight Plot

Page will automatically refresh every two minutes.


Map Options




Map Legend


Flown Route
Filed Route
Departure Airport
Arrival Airport
Navaid (VOR, NDB)
Fix

Horizontal Profiles

Position Reports

Time Latitude Longitude Heading Altitude Ground
Speed
01-Sep-18 15:59 33.675752 -117.871215 197 60ft 0kts
01-Sep-18 16:00 33.675752 -117.871215 197 60ft 0kts
01-Sep-18 16:01 33.675752 -117.871215 197 60ft 0kts
01-Sep-18 16:02 33.675752 -117.871215 197 60ft 0kts
01-Sep-18 16:03 33.675752 -117.871215 197 60ft 0kts
01-Sep-18 16:04 33.675752 -117.871215 197 60ft 0kts
01-Sep-18 16:05 33.675752 -117.871215 197 60ft 0kts
01-Sep-18 16:06 33.675752 -117.871215 197 60ft 0kts
01-Sep-18 16:07 33.675752 -117.871215 197 60ft 0kts
01-Sep-18 16:08 33.675752 -117.871215 197 60ft 0kts
01-Sep-18 16:09 33.675752 -117.871215 198 60ft 0kts
01-Sep-18 16:10 33.675752 -117.871215 198 60ft 0kts
01-Sep-18 16:11 33.675729 -117.871222 189 60ft 1kts
01-Sep-18 16:12 33.676872 -117.869621 25 59ft 11kts
01-Sep-18 16:13 33.679618 -117.868003 22 60ft 10kts
01-Sep-18 16:14 33.681196 -117.866335 111 60ft 0kts
01-Sep-18 16:15 33.681196 -117.866335 111 60ft 0kts
01-Sep-18 16:16 33.681123 -117.866117 113 60ft 6kts
01-Sep-18 16:16 33.672581 -117.870657 204 140ft 85kts
01-Sep-18 16:18 33.652833 -117.896650 230 1126ft 101kts
01-Sep-18 16:19 33.635311 -117.923871 230 1967ft 101kts
01-Sep-18 16:20 33.618729 -117.949441 230 2982ft 92kts
01-Sep-18 16:20 33.606686 -117.967854 230 3913ft 76kts
01-Sep-18 16:21 33.588233 -117.996483 230 4005ft 134kts
01-Sep-18 16:23 33.564839 -118.043238 275 4003ft 153kts
01-Sep-18 16:24 33.574910 -118.092643 281 3996ft 156kts
01-Sep-18 16:24 33.584036 -118.134407 280 3997ft 156kts
01-Sep-18 16:25 33.595367 -118.184783 291 3991ft 158kts
01-Sep-18 16:26 33.637138 -118.189375 11 3996ft 169kts
01-Sep-18 16:27 33.683554 -118.178048 11 3998ft 170kts
01-Sep-18 16:28 33.729766 -118.169890 341 3991ft 169kts
01-Sep-18 16:29 33.763937 -118.200474 316 3996ft 166kts
01-Sep-18 16:30 33.797096 -118.234335 316 3994ft 157kts
01-Sep-18 16:31 33.830417 -118.268824 315 3996ft 159kts
01-Sep-18 16:32 33.864025 -118.303836 316 3988ft 160kts
01-Sep-18 16:33 33.897677 -118.338973 316 3984ft 160kts
01-Sep-18 16:34 33.931122 -118.373952 316 3984ft 160kts
01-Sep-18 16:35 33.964699 -118.409137 316 3986ft 160kts
01-Sep-18 16:36 33.998182 -118.444244 315 3986ft 160kts
01-Sep-18 16:37 34.030242 -118.481178 311 3987ft 162kts
01-Sep-18 16:38 34.061681 -118.520568 311 3988ft 163kts
01-Sep-18 16:39 34.092640 -118.559438 311 4006ft 164kts
01-Sep-18 16:40 34.121661 -118.595802 311 3999ft 154kts
01-Sep-18 16:41 34.150460 -118.631991 312 3978ft 148kts
01-Sep-18 16:42 34.180538 -118.646363 49 3979ft 136kts
01-Sep-18 16:43 34.199548 -118.609359 87 3770ft 117kts
01-Sep-18 16:44 34.200386 -118.573595 92 3821ft 95kts
01-Sep-18 16:45 34.200052 -118.541133 93 3503ft 100kts
01-Sep-18 16:46 34.199673 -118.507218 93 2993ft 105kts
01-Sep-18 16:47 34.199221 -118.470681 92 2442ft 112kts
01-Sep-18 16:48 34.198762 -118.433088 92 1861ft 108kts
01-Sep-18 16:49 34.198286 -118.397517 93 1251ft 103kts
01-Sep-18 16:50 34.197921 -118.368057 90 729ft 65kts
01-Sep-18 16:51 34.198629 -118.364623 354 726ft 0kts
01-Sep-18 16:52 34.200243 -118.363482 319 729ft 1kts
01-Sep-18 16:53 34.200190 -118.363601 181 729ft 0kts

Navigation Log

Ident Type
Flight plan parsing failed, navigation log unavailable